Time;durP1;ratioP1;P1;durP2;ratioP2;P2;SDS_P1;SDS_P2;PMS_P1;PMS_P2;Temp;Humidity;BMP_temperature;BMP_pressure;BME280_temperature;BME280_humidity;BME280_pressure;Samples;Min_cycle;Max_cycle;Signal;HPM_P1;HPM_P2
2022/11/28 00:04:43;;;;;;;17.88;14.20;;;;;;;7.31;100.00;100884.75;10576924;28;20115;-64
2022/11/28 00:09:43;;;;;;;15.38;13.07;;;;;;;7.34;100.00;100867.38;10588597;28;20120;-65
2022/11/28 00:14:43;;;;;;;17.00;14.75;;;;;;;7.36;100.00;100850.03;10570121;28;20421;-65
2022/11/28 00:19:44;;;;;;;16.33;13.20;;;;;;;7.45;100.00;100853.53;10569836;28;20471;-65
2022/11/28 00:24:44;;;;;;;15.45;13.80;;;;;;;7.45;100.00;100858.91;10587176;28;20078;-65
2022/11/28 00:29:45;;;;;;;14.55;13.07;;;;;;;7.48;100.00;100863.94;10569285;28;20024;-64
2022/11/28 00:34:45;;;;;;;12.38;11.07;;;;;;;7.56;100.00;100863.03;10586852;28;20387;-65
2022/11/28 00:39:46;;;;;;;16.35;12.38;;;;;;;7.63;100.00;100854.06;10586563;28;20535;-65
2022/11/28 00:44:47;;;;;;;12.30;11.10;;;;;;;7.73;100.00;100847.63;10568462;28;20039;-64
2022/11/28 00:49:47;;;;;;;17.38;13.00;;;;;;;7.77;100.00;100840.84;10569450;28;20023;-65
2022/11/28 00:54:48;;;;;;;12.98;11.73;;;;;;;7.84;100.00;100845.31;10586382;28;20031;-65
2022/11/28 00:59:48;;;;;;;13.15;11.88;;;;;;;7.91;100.00;100840.03;10586344;28;20433;-64
2022/11/28 01:04:48;;;;;;;12.38;11.18;;;;;;;7.97;100.00;100841.16;10585700;28;20063;-65
2022/11/28 01:09:49;;;;;;;15.98;12.35;;;;;;;8.03;100.00;100829.66;10586057;28;20031;-64
2022/11/28 01:14:49;;;;;;;12.88;11.57;;;;;;;8.04;100.00;100829.50;10567436;28;20052;-65
2022/11/28 01:19:50;;;;;;;14.07;11.65;;;;;;;8.06;100.00;100824.72;10585371;28;20039;-65
2022/11/28 01:24:50;;;;;;;13.20;11.05;;;;;;;8.07;100.00;100826.44;10585115;28;20031;-65
2022/11/28 01:29:51;;;;;;;9.85;8.95;;;;;;;8.09;100.00;100808.19;10566812;28;20173;-65
2022/11/28 01:34:51;;;;;;;12.35;9.77;;;;;;;8.14;100.00;100813.03;10586392;28;20035;-64
2022/11/28 01:39:51;;;;;;;13.35;11.85;;;;;;;8.21;100.00;100813.97;10567443;28;20407;-65
2022/11/28 01:44:52;;;;;;;12.18;9.80;;;;;;;8.20;100.00;100830.31;10584375;28;20045;-66
2022/11/28 01:49:52;;;;;;;14.77;12.50;;;;;;;8.24;100.00;100823.56;10584073;28;20462;-64
2022/11/28 01:54:56;;;;;;;13.63;11.68;;;;;;;8.27;100.00;100797.06;10566411;28;20350;-65
2022/11/28 02:00:01;;;;;;;14.38;12.98;;;;;;;8.21;100.00;100802.34;10566252;28;20104;-65
2022/11/28 02:05:02;;;;;;;17.02;13.05;;;;;;;8.32;100.00;100809.97;10583025;28;20047;-66
2022/11/28 02:10:05;;;;;;;11.35;10.15;;;;;;;8.31;100.00;100795.66;10583548;28;20027;-65
2022/11/28 02:15:42;;;;;;;15.65;13.07;;;;;;;8.34;100.00;100800.69;10564437;28;20052;-66
2022/11/28 02:21:01;;;;;;;15.48;12.88;;;;;;;8.34;100.00;100808.78;10582382;28;20031;-66
2022/11/28 02:26:21;;;;;;;13.63;12.10;;;;;;;8.43;100.00;100798.78;10582938;28;20459;-65
2022/11/28 02:31:54;;;;;;;13.88;12.48;;;;;;;8.38;100.00;100795.78;10565680;28;20027;-65
2022/11/28 02:37:06;;;;;;;17.85;13.50;;;;;;;8.48;100.00;100811.69;10556634;28;20039;-65
2022/11/28 02:42:22;;;;;;;15.43;12.45;;;;;;;8.47;100.00;100800.06;10583638;28;20036;-65
2022/11/28 02:47:26;;;;;;;14.77;13.03;;;;;;;8.50;100.00;100796.16;10581169;28;20027;-64
2022/11/28 02:52:47;;;;;;;16.70;13.93;;;;;;;8.54;100.00;100794.75;10546944;28;20023;-65
2022/11/28 02:57:49;;;;;;;15.88;14.23;;;;;;;8.54;100.00;100798.28;10547388;28;20034;-66
2022/11/28 03:02:57;;;;;;;15.30;13.63;;;;;;;8.54;100.00;100790.19;10581961;28;20375;-65
2022/11/28 03:08:08;;;;;;;16.85;15.07;;;;;;;8.57;100.00;100789.81;10581532;28;20035;-65
2022/11/28 03:13:50;;;;;;;15.65;12.82;;;;;;;8.56;100.00;100787.31;10563063;28;20471;-64
2022/11/28 03:19:09;;;;;;;17.70;15.60;;;;;;;8.56;100.00;100793.56;10509159;28;20145;-64
2022/11/28 03:24:13;;;;;;;20.08;17.00;;;;;;;8.57;100.00;100788.97;10564939;28;20048;-64
2022/11/28 03:29:17;;;;;;;19.52;17.45;;;;;;;8.48;100.00;100779.31;10563242;28;20032;-65
2022/11/28 03:34:19;;;;;;;19.50;17.45;;;;;;;8.46;100.00;100798.41;10563042;28;20040;-66
2022/11/28 03:39:21;;;;;;;14.38;12.95;;;;;;;8.43;100.00;100798.78;10563754;28;20081;-65
2022/11/28 03:44:28;;;;;;;17.70;15.02;;;;;;;8.41;100.00;100803.50;10580995;28;20084;-65
2022/11/28 03:49:30;;;;;;;19.17;15.27;;;;;;;8.44;100.00;100788.81;10563550;28;20169;-65
2022/11/28 03:54:35;;;;;;;16.20;14.38;;;;;;;8.46;100.00;100793.00;10563340;28;20054;-65
2022/11/28 03:59:41;;;;;;;19.15;15.02;;;;;;;8.49;100.00;100795.31;10563287;28;20174;-66
2022/11/28 04:05:03;;;;;;;18.15;14.98;;;;;;;8.43;100.00;100800.63;10544828;28;20165;-65
2022/11/28 04:10:18;;;;;;;15.13;13.63;;;;;;;8.44;100.00;100795.03;10581394;28;20026;-66
2022/11/28 04:15:28;;;;;;;18.40;15.02;;;;;;;8.47;100.00;100800.06;10587604;28;20479;-65
2022/11/28 04:20:33;;;;;;;19.23;16.80;;;;;;;8.43;100.00;100798.78;10593340;28;20467;-65
2022/11/28 04:25:36;;;;;;;20.75;16.88;;;;;;;8.43;100.00;100796.06;10570343;28;20035;-65
2022/11/28 04:30:36;;;;;;;20.83;17.65;;;;;;;8.44;100.00;100796.91;10574169;28;20087;-67
2022/11/28 04:35:55;;;;;;;22.40;18.90;;;;;;;8.49;100.00;100810.69;10578116;28;20475;-66
2022/11/28 04:41:11;;;;;;;29.98;19.90;;;;;;;8.47;100.00;100802.75;10607804;28;20031;-65
2022/11/28 04:46:17;;;;;;;22.60;20.07;;;;;;;8.49;100.00;100819.63;10571750;28;20067;-64
2022/11/28 04:51:29;;;;;;;28.05;20.85;;;;;;;8.42;100.00;100821.34;10570274;28;20302;-65
2022/11/28 04:56:33;;;;;;;32.67;22.98;;;;;;;8.49;100.00;100825.00;10585795;28;20030;-65
2022/11/28 05:01:33;;;;;;;31.63;24.45;;;;;;;8.49;100.00;100825.00;10569052;28;20122;-65
2022/11/28 05:06:34;;;;;;;34.42;24.55;;;;;;;8.49;100.00;100834.97;10570687;28;20030;-65
2022/11/28 05:11:35;;;;;;;29.55;23.02;;;;;;;8.50;100.00;100829.38;10551148;28;20495;-64
2022/11/28 05:16:35;;;;;;;30.05;24.27;;;;;;;8.53;100.00;100834.41;10568979;28;20109;-65
2022/11/28 05:21:36;;;;;;;35.72;21.20;;;;;;;8.54;100.00;100832.53;10587394;28;20040;-66
2022/11/28 05:26:37;;;;;;;34.40;25.05;;;;;;;8.51;100.00;100846.41;10567659;28;20040;-65
2022/11/28 05:31:37;;;;;;;34.22;24.33;;;;;;;8.48;100.00;100836.81;10584700;28;20128;-66
2022/11/28 05:36:37;;;;;;;33.33;26.35;;;;;;;8.53;100.00;100842.50;10585459;28;20059;-65
2022/11/28 05:41:38;;;;;;;34.53;25.60;;;;;;;8.52;100.00;100837.28;10488953;28;20051;-66
2022/11/28 05:46:38;;;;;;;32.50;25.88;;;;;;;8.47;100.00;100843.25;10583180;28;20069;-67
2022/11/28 05:51:38;;;;;;;39.63;27.88;;;;;;;8.49;100.00;100859.25;10584990;28;20395;-67
2022/11/28 05:56:39;;;;;;;38.10;26.63;;;;;;;8.56;100.00;100865.59;10586330;28;20035;-66
2022/11/28 06:01:40;;;;;;;37.42;23.92;;;;;;;8.54;100.00;100868.47;10583119;28;20036;-65
2022/11/28 06:06:40;;;;;;;32.97;24.50;;;;;;;8.57;100.00;100864.56;10582780;28;20031;-66
2022/11/28 06:11:41;;;;;;;36.63;22.05;;;;;;;8.51;100.00;100852.63;10583819;28;20039;-66
2022/11/28 06:16:42;;;;;;;37.67;26.73;;;;;;;8.50;100.00;100853.66;10500666;28;20479;-67
2022/11/28 06:21:42;;;;;;;43.67;28.85;;;;;;;8.51;100.00;100866.13;10564418;28;20157;-66
2022/11/28 06:26:43;;;;;;;49.08;31.20;;;;;;;8.54;100.00;100860.38;10563799;28;20031;-66
2022/11/28 06:31:43;;;;;;;39.63;28.63;;;;;;;8.55;100.00;100861.19;10583901;28;20027;-66
2022/11/28 06:36:44;;;;;;;56.33;30.70;;;;;;;8.54;100.00;100870.31;10563826;28;20383;-66
2022/11/28 06:41:44;;;;;;;40.85;28.88;;;;;;;8.59;100.00;100874.16;10582024;28;20039;-66
2022/11/28 06:46:44;;;;;;;50.72;32.13;;;;;;;8.57;100.00;100875.34;10581688;28;20040;-66
2022/11/28 06:51:45;;;;;;;53.63;33.08;;;;;;;8.58;100.00;100875.19;10581737;28;20451;-66
2022/11/28 06:56:45;;;;;;;45.92;27.38;;;;;;;8.63;100.00;100879.19;10564678;28;20054;-65
2022/11/28 07:01:46;;;;;;;51.75;28.80;;;;;;;8.59;100.00;100884.94;10581467;28;20032;-67
2022/11/28 07:06:46;;;;;;;46.20;24.67;;;;;;;8.60;100.00;100881.22;10580901;28;20036;-65
2022/11/28 07:11:46;;;;;;;48.47;29.42;;;;;;;8.63;100.00;100888.13;10582460;28;20482;-66
2022/11/28 07:16:47;;;;;;;50.05;29.42;;;;;;;8.61;100.00;100892.84;10580681;28;20051;-66
2022/11/28 07:21:49;;;;;;;44.60;26.15;;;;;;;8.62;100.00;100894.53;10562456;28;20134;-66
2022/11/28 07:26:49;;;;;;;44.67;25.95;;;;;;;8.61;100.00;100898.25;10580721;28;20023;-66
2022/11/28 07:31:49;;;;;;;54.22;29.75;;;;;;;8.66;100.00;100908.50;10580894;28;20036;-65
2022/11/28 07:36:50;;;;;;;52.03;28.73;;;;;;;8.68;100.00;100914.53;10582383;28;20088;-66
2022/11/28 07:41:50;;;;;;;54.80;30.50;;;;;;;8.70;100.00;100912.50;10562615;28;20038;-66
2022/11/28 07:46:51;;;;;;;50.22;32.88;;;;;;;8.74;100.00;100911.97;10582608;28;20032;-66
2022/11/28 07:51:52;;;;;;;44.83;31.83;;;;;;;8.78;100.00;100921.38;10589616;28;20062;-65
2022/11/28 07:56:52;;;;;;;50.97;30.70;;;;;;;8.82;100.00;100925.38;10589520;28;20425;-65
2022/11/28 08:01:52;;;;;;;60.38;32.47;;;;;;;8.87;100.00;100932.06;10587643;28;20510;-66
2022/11/28 08:06:53;;;;;;;70.75;35.88;;;;;;;8.94;100.00;100935.72;10588713;28;20031;-66
2022/11/28 08:11:53;;;;;;;56.63;32.97;;;;;;;9.02;100.00;100938.31;10589348;28;20036;-66
2022/11/28 08:16:54;;;;;;;54.40;30.60;;;;;;;9.06;100.00;100945.88;10588089;28;20419;-65
2022/11/28 08:21:54;;;;;;;57.97;31.08;;;;;;;9.10;100.00;100942.81;10569638;28;20418;-66
2022/11/28 08:26:54;;;;;;;72.05;34.58;;;;;;;9.17;100.00;100938.31;10586778;28;20047;-67
2022/11/28 08:31:55;;;;;;;65.25;32.45;;;;;;;9.19;100.00;100944.34;10587374;28;20059;-66
2022/11/28 08:36:55;;;;;;;73.05;32.20;;;;;;;9.22;100.00;100942.13;10586008;28;20383;-66
2022/11/28 08:41:56;;;;;;;66.43;33.25;;;;;;;9.33;100.00;100948.91;10569169;28;20190;-65
2022/11/28 08:46:56;;;;;;;50.28;31.80;;;;;;;9.38;100.00;100934.81;10569793;28;20478;-66
2022/11/28 08:51:57;;;;;;;54.65;31.75;;;;;;;9.43;100.00;100937.81;10587650;28;20040;-66
2022/11/28 08:56:57;;;;;;;49.22;28.05;;;;;;;9.49;100.00;100937.88;10567698;28;20036;-66
2022/11/28 09:01:58;;;;;;;46.15;26.50;;;;;;;9.57;100.00;100944.22;10585715;28;20055;-66
2022/11/28 09:06:58;;;;;;;70.60;30.10;;;;;;;9.54;100.00;100951.69;10585162;28;20036;-66
2022/11/28 09:11:59;;;;;;;45.28;26.42;;;;;;;9.58;100.00;100954.03;10585107;28;20064;-65
2022/11/28 09:16:59;;;;;;;41.08;25.42;;;;;;;9.70;100.00;100941.66;10582712;28;20079;-66
2022/11/28 09:21:59;;;;;;;34.30;24.75;;;;;;;9.73;100.00;100946.69;10583227;28;20024;-66
2022/11/28 09:27:01;;;;;;;31.33;21.98;;;;;;;9.81;100.00;100953.84;10566144;28;20089;-66
2022/11/28 09:32:01;;;;;;;35.55;22.75;;;;;;;9.83;100.00;100955.34;10584146;28;20059;-66
2022/11/28 09:37:02;;;;;;;37.60;23.27;;;;;;;9.86;100.00;100954.09;10584046;28;20043;-67
2022/11/28 09:42:25;;;;;;;35.92;22.00;;;;;;;9.90;100.00;100961.66;10566513;28;20106;-67
2022/11/28 09:47:28;;;;;;;29.00;20.98;;;;;;;9.98;100.00;100969.63;10583033;28;20375;-67
2022/11/28 09:52:44;;;;;;;35.58;22.17;;;;;;;10.00;100.00;100970.28;10565472;28;20023;-66
2022/11/28 09:57:46;;;;;;;36.75;22.83;;;;;;;9.97;100.00;100965.25;10565796;28;20077;-66
2022/11/28 10:02:58;;;;;;;36.45;19.02;;;;;;;10.01;100.00;100974.66;10583231;28;20122;-66
2022/11/28 10:08:22;;;;;;;33.17;22.33;;;;;;;9.99;100.00;100967.78;10582653;28;20076;-67
2022/11/28 10:13:22;;;;;;;40.55;24.70;;;;;;;9.98;100.00;100972.34;10593326;28;20035;-67
2022/11/28 10:18:39;;;;;;;41.30;26.67;;;;;;;10.02;100.00;100973.66;10593718;28;20385;-66
2022/11/28 10:23:41;;;;;;;;;;;;;;;10.10;100.00;100978.09;10582333;28;20023;-66
2022/11/28 10:28:42;;;;;;;46.30;27.80;;;;;;;10.20;100.00;100986.72;10582082;28;19912;-67
2022/11/28 10:33:53;;;;;;;48.50;28.25;;;;;;;10.38;100.00;100983.59;10564721;28;20455;-67
2022/11/28 10:38:53;;;;;;;37.45;25.98;;;;;;;10.63;100.00;100983.22;10566010;28;20088;-66
2022/11/28 10:44:01;;;;;;;35.35;25.35;;;;;;;10.66;100.00;100986.34;10585240;28;20088;-66
2022/11/28 10:49:08;;;;;;;38.38;25.30;;;;;;;10.78;100.00;100978.50;10585216;28;20039;-67
2022/11/28 10:54:14;;;;;;;;;;;;;;;10.74;100.00;100990.78;10586261;28;20028;-67
2022/11/28 10:59:42;;;;;;;45.83;23.23;;;;;;;10.77;100.00;100990.38;10581428;28;19947;-68
2022/11/28 11:04:43;;;;;;;38.38;23.17;;;;;;;10.76;100.00;100994.16;10581391;28;20028;-67
2022/11/28 11:09:43;;;;;;;37.55;23.80;;;;;;;10.74;100.00;100995.38;10563405;28;20418;-68
2022/11/28 11:14:44;;;;;;;37.42;21.70;;;;;;;10.64;100.00;101006.53;10547460;28;20142;-68
2022/11/28 11:19:44;;;;;;;35.50;19.60;;;;;;;10.60;100.00;100997.97;10564966;28;20081;-66
2022/11/28 11:25:05;;;;;;;33.13;20.88;;;;;;;10.46;100.00;100997.03;10588577;28;20378;-68
2022/11/28 11:30:22;;;;;;;31.85;19.08;;;;;;;10.38;100.00;100994.44;10590771;28;20457;-67
2022/11/28 11:35:23;;;;;;;;;;;;;;;10.55;100.00;100984.16;10589261;28;20046;-66
2022/11/28 11:40:28;;;;;;;26.52;17.98;;;;;;;10.71;100.00;100978.47;10589170;28;19908;-67
2022/11/28 11:45:32;;;;;;;27.00;20.77;;;;;;;10.89;100.00;100982.56;10570813;28;20107;-68
2022/11/28 11:50:32;;;;;;;38.35;20.23;;;;;;;11.09;100.00;100978.09;10570564;28;20380;-67
2022/11/28 11:55:39;;;;;;;34.25;21.30;;;;;;;11.45;100.00;100973.50;10570400;28;20032;-66
2022/11/28 12:00:39;;;;;;;37.55;20.70;;;;;;;11.90;100.00;100977.47;10570368;28;20024;-67
2022/11/28 12:05:48;;;;;;;28.15;16.52;;;;;;;12.35;100.00;100977.78;10587462;28;20501;-67
2022/11/28 12:10:51;;;;;;;24.45;17.45;;;;;;;12.42;100.00;100978.63;10586888;28;20035;-68
2022/11/28 12:16:00;;;;;;;23.17;15.40;;;;;;;12.30;100.00;100991.13;10587692;28;20057;-67
2022/11/28 12:21:12;;;;;;;31.55;14.88;;;;;;;12.24;100.00;100995.50;10587812;28;20488;-67
2022/11/28 12:26:42;;;;;;;19.85;13.48;;;;;;;12.02;100.00;100994.00;10571454;28;20430;-66
2022/11/28 12:32:24;;;;;;;36.58;12.93;;;;;;;12.07;100.00;100991.50;10569894;28;20036;-68
2022/11/28 12:37:41;;;;;;;26.25;12.45;;;;;;;12.10;100.00;100991.09;10579055;28;20079;-67
2022/11/28 12:43:26;;;;;;;28.90;12.60;;;;;;;12.20;100.00;100996.97;10568417;28;20424;-67
2022/11/28 12:48:26;;;;;;;27.15;13.48;;;;;;;12.26;100.00;100996.13;10586248;28;20085;-68
2022/11/28 12:54:01;;;;;;;17.20;11.43;;;;;;;12.26;100.00;101004.28;10585967;28;20479;-67
2022/11/28 12:59:18;;;;;;;18.65;12.07;;;;;;;12.05;100.00;101004.44;10554754;28;20105;-67
2022/11/28 13:04:46;;;;;;;44.15;14.82;;;;;;;11.96;100.00;101008.38;10568365;28;20023;-67
2022/11/28 13:09:58;;;;;;;30.17;12.05;;;;;;;11.80;100.00;101020.38;10586688;28;20035;-67
2022/11/28 13:15:01;;;;;;;20.23;12.30;;;;;;;11.58;100.00;101023.25;10586357;28;20126;-67
2022/11/28 13:20:23;;;;;;;24.70;10.70;;;;;;;11.38;100.00;101027.69;10585807;28;20063;-68
2022/11/28 13:25:31;;;;;;;34.05;11.77;;;;;;;11.25;100.00;101022.19;10584472;28;20062;-67
2022/11/28 13:30:37;;;;;;;24.83;14.18;;;;;;;11.20;100.00;101025.53;10567125;28;20031;-68
2022/11/28 13:35:38;;;;;;;23.73;11.27;;;;;;;11.16;100.00;101025.06;10584878;28;20035;-67
2022/11/28 13:40:46;;;;;;;18.67;10.52;;;;;;;11.09;100.00;101026.06;10567058;28;20038;-68
2022/11/28 13:45:47;;;;;;;37.35;10.68;;;;;;;11.00;100.00;101032.66;10565757;28;20038;-67
2022/11/28 13:51:11;;;;;;;22.10;10.65;;;;;;;10.93;100.00;101041.56;10566900;28;20320;-66
2022/11/28 13:56:20;;;;;;;28.65;11.50;;;;;;;10.87;100.00;101042.34;10584211;28;20108;-68
2022/11/28 14:01:24;;;;;;;24.85;11.20;;;;;;;10.83;100.00;101041.06;10585054;28;20127;-67
2022/11/28 14:06:57;;;;;;;20.48;10.82;;;;;;;10.82;100.00;101039.41;10533490;27;20413;-67
2022/11/28 14:12:35;;;;;;;24.25;10.10;;;;;;;10.82;100.00;101044.00;10532677;28;20040;-67
2022/11/28 14:17:50;;;;;;;27.65;10.93;;;;;;;10.83;100.00;101051.91;10532278;28;20039;-69
2022/11/28 14:23:29;;;;;;;25.33;9.10;;;;;;;10.85;100.00;101049.03;10531906;28;20028;-68
2022/11/28 14:28:36;;;;;;;21.27;8.35;;;;;;;10.79;100.00;101060.63;10532503;28;20043;-67
2022/11/28 14:33:38;;;;;;;29.13;9.10;;;;;;;10.69;100.00;101064.50;10515347;28;20071;-68
2022/11/28 14:38:40;;;;;;;38.28;9.82;;;;;;;10.59;100.00;101065.84;10532564;28;20105;-67
2022/11/28 14:43:45;;;;;;;31.08;9.88;;;;;;;10.45;100.00;101084.69;10532117;28;20032;-68
2022/11/28 14:48:57;;;;;;;16.73;7.63;;;;;;;10.28;100.00;101083.25;10533597;28;20098;-67
2022/11/28 14:53:58;;;;;;;23.35;9.25;;;;;;;10.18;100.00;101088.94;10531386;28;20034;-67
2022/11/28 14:59:00;;;;;;;24.40;8.95;;;;;;;10.05;100.00;101093.34;10530498;28;20029;-67
2022/11/28 15:04:13;;;;;;;22.08;7.95;;;;;;;9.78;100.00;101101.13;10513971;28;20059;-67
2022/11/28 15:09:22;;;;;;;17.75;7.07;;;;;;;9.67;100.00;101101.59;10530117;28;20078;-66
2022/11/28 15:14:22;;;;;;;23.73;10.18;;;;;;;9.51;100.00;101110.72;10505296;28;20040;-67
2022/11/28 15:19:27;;;;;;;30.27;9.85;;;;;;;9.41;100.00;101112.84;10502292;28;20051;-66
2022/11/28 15:24:36;;;;;;;21.67;8.73;;;;;;;9.34;100.00;101115.44;10485090;28;20028;-67
2022/11/28 15:29:36;;;;;;;20.08;8.65;;;;;;;9.29;100.00;101128.69;10502419;28;20036;-66
2022/11/28 15:34:37;;;;;;;36.47;9.57;;;;;;;9.28;100.00;101135.09;10502081;28;20413;-67
2022/11/28 15:39:38;;;;;;;34.38;10.05;;;;;;;9.21;100.00;101124.19;10503447;28;20119;-67
2022/11/28 15:44:40;;;;;;;34.03;11.50;;;;;;;9.16;100.00;101131.19;10500792;28;20426;-67
2022/11/28 15:49:41;;;;;;;38.15;10.25;;;;;;;9.16;100.00;101141.97;10500697;28;20024;-67
2022/11/28 15:54:42;;;;;;;32.25;11.85;;;;;;;9.07;100.00;101150.16;10502073;28;20048;-67
2022/11/28 15:59:42;;;;;;;33.22;11.70;;;;;;;9.09;100.00;101155.34;10501137;28;20040;-67
2022/11/28 16:04:43;;;;;;;26.55;10.95;;;;;;;9.05;100.00;101156.75;10499695;28;20060;-67
2022/11/28 16:10:12;;;;;;;36.25;15.82;;;;;;;9.03;100.00;101154.25;10500086;28;20472;-67
2022/11/28 16:15:16;;;;;;;29.83;17.80;;;;;;;9.11;100.00;101160.59;10486752;28;20052;-67
2022/11/28 16:20:22;;;;;;;26.50;15.20;;;;;;;9.15;100.00;101164.59;10499145;28;20041;-67
2022/11/28 16:25:23;;;;;;;47.40;20.42;;;;;;;9.16;100.00;101171.69;10498002;28;20384;-67
2022/11/28 16:30:40;;;;;;;45.35;22.45;;;;;;;9.20;100.00;101168.44;10482588;28;20040;-67
2022/11/28 16:35:41;;;;;;;35.25;23.92;;;;;;;9.24;100.00;101169.75;10482296;28;20036;-67
2022/11/28 16:40:41;;;;;;;38.30;22.77;;;;;;;9.25;100.00;101162.47;10482604;28;20036;-67
2022/11/28 16:45:42;;;;;;;44.33;26.52;;;;;;;9.24;100.00;101171.63;10498228;28;20086;-67
2022/11/28 16:51:12;;;;;;;49.58;28.73;;;;;;;9.21;100.00;101163.88;10498197;28;20033;-67
2022/11/28 16:56:30;;;;;;;46.58;28.35;;;;;;;9.13;100.00;101174.78;10498231;28;20062;-67
2022/11/28 17:01:31;;;;;;;44.70;28.83;;;;;;;9.13;100.00;101194.50;10497864;28;20106;-66
2022/11/28 17:06:35;;;;;;;64.75;29.65;;;;;;;9.17;100.00;101193.13;10497043;28;20020;-67
2022/11/28 17:11:37;;;;;;;46.10;30.30;;;;;;;9.18;100.00;101213.72;10497513;28;20032;-67
2022/11/28 17:16:38;;;;;;;44.58;29.80;;;;;;;9.16;100.00;101214.94;10497895;28;20025;-67
2022/11/28 17:21:42;;;;;;;63.42;36.65;;;;;;;9.20;100.00;101216.25;10464403;28;20036;-66
2022/11/28 17:26:42;;;;;;;56.70;35.42;;;;;;;9.20;100.00;101221.66;10497963;28;20033;-68
2022/11/28 17:31:45;;;;;;;55.47;35.85;;;;;;;9.10;100.00;101226.47;10497609;28;20047;-67
2022/11/28 17:36:46;;;;;;;51.88;34.65;;;;;;;9.03;100.00;101234.41;10480479;28;20396;-66
2022/11/28 17:41:47;;;;;;;70.03;37.80;;;;;;;9.01;100.00;101236.47;10513400;28;20032;-66
2022/11/28 17:46:48;;;;;;;73.97;39.15;;;;;;;8.98;100.00;101243.06;10530155;28;20461;-66
2022/11/28 17:51:49;;;;;;;96.97;41.85;;;;;;;8.92;100.00;101246.47;10497719;28;20036;-66
2022/11/28 17:56:50;;;;;;;89.25;40.92;;;;;;;8.84;100.00;101241.16;10497809;28;20044;-66
2022/11/28 18:01:50;;;;;;;82.55;40.83;;;;;;;8.77;100.00;101242.84;10495943;28;20514;-66
2022/11/28 18:06:51;;;;;;;81.40;39.70;;;;;;;8.75;100.00;101244.91;10497889;28;20063;-66
2022/11/28 18:11:51;;;;;;;80.15;40.15;;;;;;;8.72;100.00;101247.97;10496410;28;20480;-67
2022/11/28 18:16:52;;;;;;;74.32;38.83;;;;;;;8.63;100.00;101254.41;10496026;28;20427;-68
2022/11/28 18:21:52;;;;;;;88.60;43.58;;;;;;;8.56;100.00;101255.13;10496080;28;20056;-66
2022/11/28 18:26:53;;;;;;;72.85;39.75;;;;;;;8.50;100.00;101242.31;10497315;28;20045;-67
2022/11/28 18:31:53;;;;;;;77.25;41.20;;;;;;;8.46;100.00;101253.66;10497460;28;20041;-67
2022/11/28 18:36:59;;;;;;;68.95;40.40;;;;;;;8.44;100.00;101258.38;10497198;28;20086;-66
2022/11/28 18:41:59;;;;;;;66.47;37.33;;;;;;;8.40;100.00;101257.88;10497197;28;20044;-66
2022/11/28 18:47:00;;;;;;;61.67;38.90;;;;;;;8.38;100.00;101265.31;10496397;28;20491;-66
2022/11/28 18:52:00;;;;;;;74.60;35.50;;;;;;;8.31;100.00;101266.97;10502797;28;20377;-66
2022/11/28 18:57:01;;;;;;;62.65;38.45;;;;;;;8.27;100.00;101262.97;10504122;28;20120;-66
2022/11/28 19:02:01;;;;;;;70.38;41.00;;;;;;;8.25;100.00;101276.59;10503201;28;20036;-67
2022/11/28 19:07:02;;;;;;;73.55;39.03;;;;;;;8.24;100.00;101279.50;10502927;28;20392;-68
2022/11/28 19:12:03;;;;;;;61.55;35.13;;;;;;;8.20;100.00;101283.53;10504155;28;20457;-67
2022/11/28 19:17:03;;;;;;;76.35;38.55;;;;;;;8.20;100.00;101284.41;10503267;28;20037;-66
2022/11/28 19:22:04;;;;;;;75.90;39.22;;;;;;;8.14;100.00;101293.19;10502991;28;20036;-66
2022/11/28 19:27:04;;;;;;;75.30;40.80;;;;;;;8.10;100.00;101284.59;10502926;28;20058;-65
2022/11/28 19:32:05;;;;;;;80.65;39.83;;;;;;;8.11;100.00;101283.56;10501362;28;20032;-67
2022/11/28 19:37:05;;;;;;;58.22;34.85;;;;;;;8.05;100.00;101289.66;10501711;28;20044;-66
2022/11/28 19:42:06;;;;;;;73.13;39.85;;;;;;;7.97;100.00;101286.94;10501164;28;20063;-66
2022/11/28 19:47:06;;;;;;;73.03;37.97;;;;;;;7.93;100.00;101297.25;10500103;28;20036;-68
2022/11/28 19:52:06;;;;;;;99.22;35.80;;;;;;;7.92;100.00;101295.56;9581409;28;10001089;-67
2022/11/28 19:57:10;;;;;;;70.10;38.67;;;;;;;7.84;100.00;101308.19;10436583;28;20068;-67
2022/11/28 20:02:10;;;;;;;60.97;36.63;;;;;;;7.73;100.00;101308.56;10417159;28;20132;-70
2022/11/28 20:07:10;;;;;;;61.90;36.58;;;;;;;7.61;100.00;101316.13;10417942;28;20030;-67
2022/11/28 20:12:11;;;;;;;62.50;38.78;;;;;;;7.55;100.00;101314.94;10418359;28;20156;-67
2022/11/28 20:17:11;;;;;;;61.47;39.22;;;;;;;7.52;100.00;101325.22;10416378;28;20374;-67
2022/11/28 20:22:12;;;;;;;67.97;40.75;;;;;;;7.51;100.00;101332.47;10418112;28;20025;-67
2022/11/28 20:27:12;;;;;;;51.90;32.15;;;;;;;7.54;100.00;101325.91;10419103;28;20048;-66
2022/11/28 20:32:12;;;;;;;59.90;35.78;;;;;;;7.61;100.00;101341.22;10417985;28;20021;-67
2022/11/28 20:37:13;;;;;;;80.88;37.05;;;;;;;7.65;100.00;101339.88;10418458;28;20419;-66
2022/11/28 20:42:13;;;;;;;72.15;36.72;;;;;;;7.72;100.00;101347.28;10414852;28;20120;-67
2022/11/28 20:47:14;;;;;;;61.75;34.50;;;;;;;7.78;100.00;101350.16;10416937;28;20140;-67
2022/11/28 20:52:14;;;;;;;61.80;35.85;;;;;;;7.83;100.00;101355.06;10418200;28;20056;-67
2022/11/28 20:57:14;;;;;;;49.80;34.40;;;;;;;7.82;100.00;101351.53;10416449;28;20116;-67
2022/11/28 21:02:15;;;;;;;53.03;32.28;;;;;;;7.74;100.00;101356.06;10418061;28;20532;-67
2022/11/28 21:07:16;;;;;;;74.68;42.05;;;;;;;7.67;100.00;101362.13;10417793;28;20449;-66
2022/11/28 21:12:17;;;;;;;95.63;49.22;;;;;;;7.66;100.00;101362.31;10414036;28;20032;-67
2022/11/28 21:17:17;;;;;;;46.08;28.10;;;;;;;7.58;100.00;101360.44;10414680;28;20084;-67
2022/11/28 21:22:17;;;;;;;59.85;30.80;;;;;;;7.57;100.00;101372.22;10416041;28;20029;-66
2022/11/28 21:27:18;;;;;;;49.25;28.95;;;;;;;7.51;100.00;101370.19;10414589;28;20089;-67
2022/11/28 21:32:19;;;;;;;45.47;27.15;;;;;;;7.50;100.00;101363.13;10414413;28;20033;-66
2022/11/28 21:37:19;;;;;;;67.28;32.33;;;;;;;7.53;100.00;101368.19;10397954;28;20480;-67
2022/11/28 21:42:19;;;;;;;41.97;25.95;;;;;;;7.49;100.00;101371.34;10415770;28;20041;-66
2022/11/28 21:47:20;;;;;;;54.15;28.35;;;;;;;7.40;100.00;101373.19;10415095;28;20474;-66
2022/11/28 21:52:22;;;;;;;48.45;30.15;;;;;;;7.40;100.00;101376.75;10414206;28;20068;-65
2022/11/28 21:57:23;;;;;;;51.05;25.95;;;;;;;7.42;100.00;101371.19;10415819;28;20037;-66
2022/11/28 22:02:23;;;;;;;58.72;28.98;;;;;;;7.44;100.00;101380.78;10414739;28;20046;-67
2022/11/28 22:07:24;;;;;;;46.13;28.92;;;;;;;7.40;100.00;101390.22;10414208;28;20076;-66
2022/11/28 22:12:24;;;;;;;55.63;29.70;;;;;;;7.35;100.00;101384.47;10414546;28;20036;-66
2022/11/28 22:17:24;;;;;;;45.95;25.80;;;;;;;7.23;100.00;101383.91;10430194;28;20032;-66
2022/11/28 22:22:26;;;;;;;44.53;27.88;;;;;;;7.12;100.00;101378.84;10414387;28;20487;-66
2022/11/28 22:27:29;;;;;;;59.17;28.98;;;;;;;7.01;100.00;101392.59;10421633;28;20109;-66
2022/11/28 22:32:30;;;;;;;41.50;25.25;;;;;;;6.94;100.00;101394.25;10421984;28;20113;-67
2022/11/28 22:37:30;;;;;;;37.15;24.60;;;;;;;6.99;100.00;101397.31;10424955;28;20033;-65
2022/11/28 22:42:31;;;;;;;54.30;32.53;;;;;;;6.87;100.00;101412.91;10423248;28;20476;-67
2022/11/28 22:47:31;;;;;;;52.38;26.15;;;;;;;6.80;100.00;101417.25;10422554;28;20037;-69
2022/11/28 22:52:31;;;;;;;57.47;29.30;;;;;;;6.70;100.00;101413.81;10422288;28;20033;-67